sensor_id;sensor_type;location;lat;lon;timestamp;P1;durP1;ratioP1;P2;durP2;ratioP2
13967;SDS011;39536;52.198;9.920;2023-04-25T00:00:53;8.50;;;5.37;;
13967;SDS011;39536;52.198;9.920;2023-04-25T00:03:20;12.10;;;6.03;;
13967;SDS011;39536;52.198;9.920;2023-04-25T00:05:47;10.00;;;6.00;;
13967;SDS011;39536;52.198;9.920;2023-04-25T00:08:13;8.03;;;5.20;;
13967;SDS011;39536;52.198;9.920;2023-04-25T00:10:40;6.03;;;5.50;;
13967;SDS011;39536;52.198;9.920;2023-04-25T00:13:07;10.50;;;5.80;;
13967;SDS011;39536;52.198;9.920;2023-04-25T00:15:34;12.43;;;5.60;;
13967;SDS011;39536;52.198;9.920;2023-04-25T00:18:03;11.30;;;5.83;;
13967;SDS011;39536;52.198;9.920;2023-04-25T00:20:30;5.87;;;5.20;;
13967;SDS011;39536;52.198;9.920;2023-04-25T00:22:57;9.47;;;5.47;;
13967;SDS011;39536;52.198;9.920;2023-04-25T00:25:23;11.07;;;6.30;;
13967;SDS011;39536;52.198;9.920;2023-04-25T00:27:50;10.87;;;6.30;;
13967;SDS011;39536;52.198;9.920;2023-04-25T00:30:17;9.07;;;5.70;;
13967;SDS011;39536;52.198;9.920;2023-04-25T00:32:45;10.40;;;5.87;;
13967;SDS011;39536;52.198;9.920;2023-04-25T00:35:11;11.23;;;6.10;;
13967;SDS011;39536;52.198;9.920;2023-04-25T00:37:38;10.00;;;5.40;;
13967;SDS011;39536;52.198;9.920;2023-04-25T00:40:05;11.60;;;6.53;;
13967;SDS011;39536;52.198;9.920;2023-04-25T00:42:32;10.37;;;6.20;;
13967;SDS011;39536;52.198;9.920;2023-04-25T00:45:00;8.77;;;6.37;;
13967;SDS011;39536;52.198;9.920;2023-04-25T00:47:27;11.77;;;6.60;;
13967;SDS011;39536;52.198;9.920;2023-04-25T00:49:56;10.40;;;7.50;;
13967;SDS011;39536;52.198;9.920;2023-04-25T00:52:22;13.37;;;7.47;;
13967;SDS011;39536;52.198;9.920;2023-04-25T00:54:49;11.37;;;6.97;;
13967;SDS011;39536;52.198;9.920;2023-04-25T00:57:16;12.97;;;7.13;;
13967;SDS011;39536;52.198;9.920;2023-04-25T00:59:43;12.07;;;7.40;;
13967;SDS011;39536;52.198;9.920;2023-04-25T01:02:11;13.43;;;7.77;;
13967;SDS011;39536;52.198;9.920;2023-04-25T01:04:38;13.07;;;8.30;;
13967;SDS011;39536;52.198;9.920;2023-04-25T01:07:06;10.07;;;7.13;;
13967;SDS011;39536;52.198;9.920;2023-04-25T01:09:33;7.53;;;6.57;;
13967;SDS011;39536;52.198;9.920;2023-04-25T01:12:00;10.17;;;7.07;;
13967;SDS011;39536;52.198;9.920;2023-04-25T01:14:27;8.63;;;6.50;;
13967;SDS011;39536;52.198;9.920;2023-04-25T01:16:54;9.73;;;7.47;;
13967;SDS011;39536;52.198;9.920;2023-04-25T01:19:22;9.00;;;7.27;;
13967;SDS011;39536;52.198;9.920;2023-04-25T01:21:51;11.97;;;7.83;;
13967;SDS011;39536;52.198;9.920;2023-04-25T01:24:18;17.23;;;8.00;;
13967;SDS011;39536;52.198;9.920;2023-04-25T01:26:44;12.23;;;7.77;;
13967;SDS011;39536;52.198;9.920;2023-04-25T01:29:14;11.60;;;8.57;;
13967;SDS011;39536;52.198;9.920;2023-04-25T01:31:41;11.80;;;8.40;;
13967;SDS011;39536;52.198;9.920;2023-04-25T01:34:09;8.40;;;6.63;;
13967;SDS011;39536;52.198;9.920;2023-04-25T01:36:35;10.53;;;7.90;;
13967;SDS011;39536;52.198;9.920;2023-04-25T01:39:03;12.00;;;7.70;;
13967;SDS011;39536;52.198;9.920;2023-04-25T01:41:31;9.77;;;7.90;;
13967;SDS011;39536;52.198;9.920;2023-04-25T01:43:59;12.43;;;9.37;;
13967;SDS011;39536;52.198;9.920;2023-04-25T01:46:26;12.73;;;8.37;;
13967;SDS011;39536;52.198;9.920;2023-04-25T01:48:53;12.73;;;9.20;;
13967;SDS011;39536;52.198;9.920;2023-04-25T01:51:20;16.00;;;9.63;;
13967;SDS011;39536;52.198;9.920;2023-04-25T01:53:47;13.83;;;9.03;;
13967;SDS011;39536;52.198;9.920;2023-04-25T01:56:15;13.87;;;9.67;;
13967;SDS011;39536;52.198;9.920;2023-04-25T01:58:41;13.73;;;9.73;;
13967;SDS011;39536;52.198;9.920;2023-04-25T02:01:08;13.43;;;8.57;;
13967;SDS011;39536;52.198;9.920;2023-04-25T02:03:34;16.90;;;9.23;;
13967;SDS011;39536;52.198;9.920;2023-04-25T02:06:02;9.97;;;8.97;;
13967;SDS011;39536;52.198;9.920;2023-04-25T02:08:29;10.53;;;8.97;;
13967;SDS011;39536;52.198;9.920;2023-04-25T02:10:56;13.63;;;9.57;;
13967;SDS011;39536;52.198;9.920;2023-04-25T02:13:24;15.43;;;10.27;;
13967;SDS011;39536;52.198;9.920;2023-04-25T02:15:50;13.33;;;10.07;;
13967;SDS011;39536;52.198;9.920;2023-04-25T02:18:17;9.83;;;8.40;;
13967;SDS011;39536;52.198;9.920;2023-04-25T02:20:45;15.43;;;10.20;;
13967;SDS011;39536;52.198;9.920;2023-04-25T02:23:12;15.03;;;8.80;;
13967;SDS011;39536;52.198;9.920;2023-04-25T02:25:40;13.53;;;10.17;;
13967;SDS011;39536;52.198;9.920;2023-04-25T02:28:06;12.90;;;9.97;;
13967;SDS011;39536;52.198;9.920;2023-04-25T02:30:34;14.50;;;11.63;;
13967;SDS011;39536;52.198;9.920;2023-04-25T02:33:01;13.33;;;10.23;;
13967;SDS011;39536;52.198;9.920;2023-04-25T02:35:27;17.43;;;10.60;;
13967;SDS011;39536;52.198;9.920;2023-04-25T02:37:54;14.07;;;10.60;;
13967;SDS011;39536;52.198;9.920;2023-04-25T02:40:21;11.37;;;10.23;;
13967;SDS011;39536;52.198;9.920;2023-04-25T02:42:47;10.77;;;9.67;;
13967;SDS011;39536;52.198;9.920;2023-04-25T02:45:14;12.87;;;9.57;;
13967;SDS011;39536;52.198;9.920;2023-04-25T02:47:42;12.17;;;9.83;;
13967;SDS011;39536;52.198;9.920;2023-04-25T02:50:08;10.20;;;9.27;;
13967;SDS011;39536;52.198;9.920;2023-04-25T02:52:36;12.87;;;9.33;;
13967;SDS011;39536;52.198;9.920;2023-04-25T02:55:02;8.33;;;7.60;;
13967;SDS011;39536;52.198;9.920;2023-04-25T02:57:29;13.20;;;9.40;;
13967;SDS011;39536;52.198;9.920;2023-04-25T02:59:56;9.57;;;8.63;;
13967;SDS011;39536;52.198;9.920;2023-04-25T03:02:22;10.40;;;7.23;;
13967;SDS011;39536;52.198;9.920;2023-04-25T03:04:50;13.00;;;8.50;;
13967;SDS011;39536;52.198;9.920;2023-04-25T03:07:17;10.33;;;8.47;;
13967;SDS011;39536;52.198;9.920;2023-04-25T03:09:44;13.30;;;8.27;;
13967;SDS011;39536;52.198;9.920;2023-04-25T03:12:10;14.90;;;7.93;;
13967;SDS011;39536;52.198;9.920;2023-04-25T03:14:37;12.97;;;6.13;;
13967;SDS011;39536;52.198;9.920;2023-04-25T03:17:03;10.90;;;6.37;;
13967;SDS011;39536;52.198;9.920;2023-04-25T03:19:30;22.03;;;6.77;;
13967;SDS011;39536;52.198;9.920;2023-04-25T03:21:58;9.33;;;5.60;;
13967;SDS011;39536;52.198;9.920;2023-04-25T03:24:24;11.73;;;6.40;;
13967;SDS011;39536;52.198;9.920;2023-04-25T03:26:52;12.80;;;6.93;;
13967;SDS011;39536;52.198;9.920;2023-04-25T03:29:18;12.47;;;5.90;;
13967;SDS011;39536;52.198;9.920;2023-04-25T03:31:49;9.43;;;5.73;;
13967;SDS011;39536;52.198;9.920;2023-04-25T03:34:15;12.63;;;6.17;;
13967;SDS011;39536;52.198;9.920;2023-04-25T03:36:42;12.27;;;5.73;;
13967;SDS011;39536;52.198;9.920;2023-04-25T03:39:10;13.90;;;5.53;;
13967;SDS011;39536;52.198;9.920;2023-04-25T03:41:36;16.27;;;5.73;;
13967;SDS011;39536;52.198;9.920;2023-04-25T03:44:03;13.63;;;5.00;;
13967;SDS011;39536;52.198;9.920;2023-04-25T03:46:30;10.50;;;5.40;;
13967;SDS011;39536;52.198;9.920;2023-04-25T03:48:56;17.63;;;5.43;;
13967;SDS011;39536;52.198;9.920;2023-04-25T03:51:24;16.60;;;6.13;;
13967;SDS011;39536;52.198;9.920;2023-04-25T03:53:51;11.70;;;5.53;;
13967;SDS011;39536;52.198;9.920;2023-04-25T03:56:19;12.23;;;5.33;;
13967;SDS011;39536;52.198;9.920;2023-04-25T03:58:46;13.13;;;5.17;;
13967;SDS011;39536;52.198;9.920;2023-04-25T04:01:12;10.90;;;5.60;;
13967;SDS011;39536;52.198;9.920;2023-04-25T04:03:39;12.73;;;6.30;;
13967;SDS011;39536;52.198;9.920;2023-04-25T04:06:06;17.57;;;6.30;;
13967;SDS011;39536;52.198;9.920;2023-04-25T04:08:33;10.77;;;6.03;;
13967;SDS011;39536;52.198;9.920;2023-04-25T04:11:00;10.53;;;5.47;;
13967;SDS011;39536;52.198;9.920;2023-04-25T04:13:28;15.80;;;5.90;;
13967;SDS011;39536;52.198;9.920;2023-04-25T04:15:55;11.37;;;6.40;;
13967;SDS011;39536;52.198;9.920;2023-04-25T04:18:22;18.77;;;6.03;;
13967;SDS011;39536;52.198;9.920;2023-04-25T04:20:49;10.90;;;5.63;;
13967;SDS011;39536;52.198;9.920;2023-04-25T04:23:16;13.93;;;5.70;;
13967;SDS011;39536;52.198;9.920;2023-04-25T04:25:42;16.83;;;6.73;;
13967;SDS011;39536;52.198;9.920;2023-04-25T04:28:09;15.40;;;5.83;;
13967;SDS011;39536;52.198;9.920;2023-04-25T04:30:37;11.90;;;5.37;;
13967;SDS011;39536;52.198;9.920;2023-04-25T04:33:04;18.10;;;6.30;;
13967;SDS011;39536;52.198;9.920;2023-04-25T04:35:30;8.97;;;5.53;;
13967;SDS011;39536;52.198;9.920;2023-04-25T04:37:57;15.33;;;5.77;;
13967;SDS011;39536;52.198;9.920;2023-04-25T04:40:24;14.03;;;6.57;;
13967;SDS011;39536;52.198;9.920;2023-04-25T04:42:51;12.93;;;5.83;;
13967;SDS011;39536;52.198;9.920;2023-04-25T04:45:21;15.70;;;5.67;;
13967;SDS011;39536;52.198;9.920;2023-04-25T04:47:50;16.60;;;5.93;;
13967;SDS011;39536;52.198;9.920;2023-04-25T04:50:16;13.53;;;5.40;;
13967;SDS011;39536;52.198;9.920;2023-04-25T04:52:43;18.53;;;4.63;;
13967;SDS011;39536;52.198;9.920;2023-04-25T04:55:10;16.27;;;5.93;;
13967;SDS011;39536;52.198;9.920;2023-04-25T04:57:36;24.00;;;7.23;;
13967;SDS011;39536;52.198;9.920;2023-04-25T05:00:04;20.50;;;6.70;;
13967;SDS011;39536;52.198;9.920;2023-04-25T05:02:35;13.60;;;5.03;;
13967;SDS011;39536;52.198;9.920;2023-04-25T05:05:04;18.13;;;6.27;;
13967;SDS011;39536;52.198;9.920;2023-04-25T05:07:30;21.03;;;5.83;;
13967;SDS011;39536;52.198;9.920;2023-04-25T05:09:57;23.63;;;5.07;;
13967;SDS011;39536;52.198;9.920;2023-04-25T05:12:24;15.47;;;6.43;;
13967;SDS011;39536;52.198;9.920;2023-04-25T05:14:50;21.23;;;5.67;;
13967;SDS011;39536;52.198;9.920;2023-04-25T05:17:17;18.83;;;5.50;;
13967;SDS011;39536;52.198;9.920;2023-04-25T05:19:43;15.63;;;4.93;;
13967;SDS011;39536;52.198;9.920;2023-04-25T05:22:12;16.43;;;4.67;;
13967;SDS011;39536;52.198;9.920;2023-04-25T05:24:38;19.37;;;5.50;;
13967;SDS011;39536;52.198;9.920;2023-04-25T05:27:05;12.77;;;5.20;;
13967;SDS011;39536;52.198;9.920;2023-04-25T05:29:31;17.27;;;5.50;;
13967;SDS011;39536;52.198;9.920;2023-04-25T05:31:58;17.03;;;6.20;;
13967;SDS011;39536;52.198;9.920;2023-04-25T05:34:24;16.83;;;5.70;;
13967;SDS011;39536;52.198;9.920;2023-04-25T05:36:51;14.83;;;5.67;;
13967;SDS011;39536;52.198;9.920;2023-04-25T05:39:19;22.93;;;6.17;;
13967;SDS011;39536;52.198;9.920;2023-04-25T05:41:46;18.47;;;6.40;;
13967;SDS011;39536;52.198;9.920;2023-04-25T05:44:12;22.80;;;5.93;;
13967;SDS011;39536;52.198;9.920;2023-04-25T05:46:40;16.43;;;5.67;;
13967;SDS011;39536;52.198;9.920;2023-04-25T05:49:07;13.73;;;5.23;;
13967;SDS011;39536;52.198;9.920;2023-04-25T05:51:34;17.13;;;5.60;;
13967;SDS011;39536;52.198;9.920;2023-04-25T05:54:00;8.53;;;4.30;;
13967;SDS011;39536;52.198;9.920;2023-04-25T05:56:28;15.80;;;4.60;;
13967;SDS011;39536;52.198;9.920;2023-04-25T05:58:55;10.00;;;4.47;;
13967;SDS011;39536;52.198;9.920;2023-04-25T06:01:21;19.60;;;5.33;;
13967;SDS011;39536;52.198;9.920;2023-04-25T06:03:48;20.63;;;4.50;;
13967;SDS011;39536;52.198;9.920;2023-04-25T06:06:16;11.47;;;4.53;;
13967;SDS011;39536;52.198;9.920;2023-04-25T06:08:43;16.07;;;4.83;;
13967;SDS011;39536;52.198;9.920;2023-04-25T06:11:09;13.83;;;4.27;;
13967;SDS011;39536;52.198;9.920;2023-04-25T06:13:37;12.83;;;4.07;;
13967;SDS011;39536;52.198;9.920;2023-04-25T06:16:04;19.37;;;4.90;;
13967;SDS011;39536;52.198;9.920;2023-04-25T06:18:32;14.63;;;4.60;;
13967;SDS011;39536;52.198;9.920;2023-04-25T06:20:58;21.57;;;5.50;;
13967;SDS011;39536;52.198;9.920;2023-04-25T06:23:25;14.83;;;3.70;;
13967;SDS011;39536;52.198;9.920;2023-04-25T06:25:51;16.30;;;4.30;;
13967;SDS011;39536;52.198;9.920;2023-04-25T06:28:18;21.03;;;5.87;;
13967;SDS011;39536;52.198;9.920;2023-04-25T06:30:48;17.53;;;4.40;;
13967;SDS011;39536;52.198;9.920;2023-04-25T06:33:15;13.93;;;4.17;;
13967;SDS011;39536;52.198;9.920;2023-04-25T06:35:41;17.03;;;4.63;;
13967;SDS011;39536;52.198;9.920;2023-04-25T06:38:08;17.97;;;4.43;;
13967;SDS011;39536;52.198;9.920;2023-04-25T06:40:34;9.60;;;3.80;;
13967;SDS011;39536;52.198;9.920;2023-04-25T06:43:01;17.13;;;3.73;;
13967;SDS011;39536;52.198;9.920;2023-04-25T06:45:27;9.53;;;3.80;;
13967;SDS011;39536;52.198;9.920;2023-04-25T06:47:55;18.73;;;5.47;;
13967;SDS011;39536;52.198;9.920;2023-04-25T06:50:22;8.50;;;2.90;;
13967;SDS011;39536;52.198;9.920;2023-04-25T06:52:48;10.90;;;3.63;;
13967;SDS011;39536;52.198;9.920;2023-04-25T06:55:15;13.10;;;3.90;;
13967;SDS011;39536;52.198;9.920;2023-04-25T06:57:42;16.13;;;3.97;;
13967;SDS011;39536;52.198;9.920;2023-04-25T07:00:09;10.33;;;4.43;;
13967;SDS011;39536;52.198;9.920;2023-04-25T07:02:36;15.93;;;4.40;;
13967;SDS011;39536;52.198;9.920;2023-04-25T07:05:04;19.57;;;4.33;;
13967;SDS011;39536;52.198;9.920;2023-04-25T07:07:31;15.30;;;4.40;;
13967;SDS011;39536;52.198;9.920;2023-04-25T07:09:57;12.33;;;4.20;;
13967;SDS011;39536;52.198;9.920;2023-04-25T07:12:24;7.33;;;3.07;;
13967;SDS011;39536;52.198;9.920;2023-04-25T07:14:51;21.37;;;3.53;;
13967;SDS011;39536;52.198;9.920;2023-04-25T07:17:17;23.70;;;4.80;;
13967;SDS011;39536;52.198;9.920;2023-04-25T07:19:44;8.23;;;2.77;;
13967;SDS011;39536;52.198;9.920;2023-04-25T07:22:12;12.70;;;3.50;;
13967;SDS011;39536;52.198;9.920;2023-04-25T07:24:38;9.97;;;3.80;;
13967;SDS011;39536;52.198;9.920;2023-04-25T07:27:05;9.70;;;3.13;;
13967;SDS011;39536;52.198;9.920;2023-04-25T07:29:32;14.53;;;4.47;;
13967;SDS011;39536;52.198;9.920;2023-04-25T07:32:02;8.67;;;3.17;;
13967;SDS011;39536;52.198;9.920;2023-04-25T07:34:28;7.33;;;2.30;;
13967;SDS011;39536;52.198;9.920;2023-04-25T07:36:55;10.07;;;3.40;;
13967;SDS011;39536;52.198;9.920;2023-04-25T07:39:23;8.37;;;3.53;;
13967;SDS011;39536;52.198;9.920;2023-04-25T07:41:50;12.10;;;3.63;;
13967;SDS011;39536;52.198;9.920;2023-04-25T07:44:16;9.83;;;3.13;;
13967;SDS011;39536;52.198;9.920;2023-04-25T07:46:43;6.97;;;3.30;;
13967;SDS011;39536;52.198;9.920;2023-04-25T07:49:09;10.73;;;3.40;;
13967;SDS011;39536;52.198;9.920;2023-04-25T07:51:36;7.60;;;3.20;;
13967;SDS011;39536;52.198;9.920;2023-04-25T07:54:03;5.93;;;2.87;;
13967;SDS011;39536;52.198;9.920;2023-04-25T07:56:31;6.93;;;2.83;;
13967;SDS011;39536;52.198;9.920;2023-04-25T07:58:58;11.73;;;3.40;;
13967;SDS011;39536;52.198;9.920;2023-04-25T08:01:25;7.93;;;2.27;;
13967;SDS011;39536;52.198;9.920;2023-04-25T08:03:52;10.17;;;3.63;;
13967;SDS011;39536;52.198;9.920;2023-04-25T08:06:18;8.37;;;3.03;;
13967;SDS011;39536;52.198;9.920;2023-04-25T08:08:45;7.50;;;2.90;;
13967;SDS011;39536;52.198;9.920;2023-04-25T08:11:11;5.67;;;2.67;;
13967;SDS011;39536;52.198;9.920;2023-04-25T08:13:39;6.97;;;2.60;;
13967;SDS011;39536;52.198;9.920;2023-04-25T08:16:06;14.50;;;3.80;;
13967;SDS011;39536;52.198;9.920;2023-04-25T08:18:32;14.60;;;4.17;;
13967;SDS011;39536;52.198;9.920;2023-04-25T08:20:59;12.33;;;3.87;;
13967;SDS011;39536;52.198;9.920;2023-04-25T08:23:25;7.20;;;2.80;;
13967;SDS011;39536;52.198;9.920;2023-04-25T08:25:53;11.20;;;3.20;;
13967;SDS011;39536;52.198;9.920;2023-04-25T08:28:19;16.13;;;3.53;;
13967;SDS011;39536;52.198;9.920;2023-04-25T08:30:47;8.10;;;3.67;;
13967;SDS011;39536;52.198;9.920;2023-04-25T08:33:14;5.70;;;2.77;;
13967;SDS011;39536;52.198;9.920;2023-04-25T08:35:40;13.57;;;3.47;;
13967;SDS011;39536;52.198;9.920;2023-04-25T08:38:07;8.03;;;2.93;;
13967;SDS011;39536;52.198;9.920;2023-04-25T08:40:35;5.10;;;1.73;;
13967;SDS011;39536;52.198;9.920;2023-04-25T08:43:05;7.60;;;2.63;;
13967;SDS011;39536;52.198;9.920;2023-04-25T08:45:36;8.00;;;2.80;;
13967;SDS011;39536;52.198;9.920;2023-04-25T08:48:06;8.03;;;2.70;;
13967;SDS011;39536;52.198;9.920;2023-04-25T08:50:36;7.60;;;2.57;;
13967;SDS011;39536;52.198;9.920;2023-04-25T08:53:04;6.73;;;2.50;;
13967;SDS011;39536;52.198;9.920;2023-04-25T08:55:37;8.97;;;2.90;;
13967;SDS011;39536;52.198;9.920;2023-04-25T08:58:07;7.00;;;3.10;;
13967;SDS011;39536;52.198;9.920;2023-04-25T09:00:36;6.53;;;2.40;;
13967;SDS011;39536;52.198;9.920;2023-04-25T09:03:02;6.50;;;2.40;;
13967;SDS011;39536;52.198;9.920;2023-04-25T09:05:30;7.93;;;2.23;;
13967;SDS011;39536;52.198;9.920;2023-04-25T09:07:58;5.00;;;2.53;;
13967;SDS011;39536;52.198;9.920;2023-04-25T09:10:25;5.80;;;2.07;;
13967;SDS011;39536;52.198;9.920;2023-04-25T09:13:02;4.30;;;1.93;;
13967;SDS011;39536;52.198;9.920;2023-04-25T09:15:30;5.63;;;2.20;;
13967;SDS011;39536;52.198;9.920;2023-04-25T09:17:57;4.03;;;2.20;;
13967;SDS011;39536;52.198;9.920;2023-04-25T09:20:24;4.93;;;2.20;;
13967;SDS011;39536;52.198;9.920;2023-04-25T09:23:02;5.57;;;1.90;;
13967;SDS011;39536;52.198;9.920;2023-04-25T09:25:33;6.63;;;2.27;;
13967;SDS011;39536;52.198;9.920;2023-04-25T09:28:04;5.57;;;2.37;;
13967;SDS011;39536;52.198;9.920;2023-04-25T09:30:32;7.53;;;2.30;;
13967;SDS011;39536;52.198;9.920;2023-04-25T09:33:03;5.03;;;2.10;;
13967;SDS011;39536;52.198;9.920;2023-04-25T09:35:34;7.17;;;2.70;;
13967;SDS011;39536;52.198;9.920;2023-04-25T09:38:07;5.40;;;2.80;;
13967;SDS011;39536;52.198;9.920;2023-04-25T09:40:38;8.57;;;2.73;;
13967;SDS011;39536;52.198;9.920;2023-04-25T09:43:08;6.83;;;2.20;;
13967;SDS011;39536;52.198;9.920;2023-04-25T09:45:40;7.23;;;2.50;;
13967;SDS011;39536;52.198;9.920;2023-04-25T09:48:10;4.77;;;1.73;;
13967;SDS011;39536;52.198;9.920;2023-04-25T09:50:37;8.63;;;2.50;;
13967;SDS011;39536;52.198;9.920;2023-04-25T09:53:05;4.57;;;1.63;;
13967;SDS011;39536;52.198;9.920;2023-04-25T09:55:33;3.60;;;1.67;;
13967;SDS011;39536;52.198;9.920;2023-04-25T09:58:05;4.67;;;1.50;;
13967;SDS011;39536;52.198;9.920;2023-04-25T10:00:32;3.80;;;1.83;;
13967;SDS011;39536;52.198;9.920;2023-04-25T10:03:00;7.20;;;2.00;;
13967;SDS011;39536;52.198;9.920;2023-04-25T10:05:28;8.40;;;2.17;;
13967;SDS011;39536;52.198;9.920;2023-04-25T10:07:58;4.13;;;1.57;;
13967;SDS011;39536;52.198;9.920;2023-04-25T10:10:25;3.90;;;1.90;;
13967;SDS011;39536;52.198;9.920;2023-04-25T10:12:54;5.93;;;2.10;;
13967;SDS011;39536;52.198;9.920;2023-04-25T10:15:21;7.20;;;1.23;;
13967;SDS011;39536;52.198;9.920;2023-04-25T10:17:47;4.50;;;2.00;;
13967;SDS011;39536;52.198;9.920;2023-04-25T10:20:15;4.83;;;1.90;;
13967;SDS011;39536;52.198;9.920;2023-04-25T10:22:44;2.40;;;1.17;;
13967;SDS011;39536;52.198;9.920;2023-04-25T10:25:13;4.53;;;1.50;;
13967;SDS011;39536;52.198;9.920;2023-04-25T10:27:40;7.03;;;2.23;;
13967;SDS011;39536;52.198;9.920;2023-04-25T10:30:08;4.07;;;2.13;;
13967;SDS011;39536;52.198;9.920;2023-04-25T10:32:40;8.53;;;2.57;;
13967;SDS011;39536;52.198;9.920;2023-04-25T10:35:11;7.83;;;2.47;;
13967;SDS011;39536;52.198;9.920;2023-04-25T10:40:25;8.00;;;2.40;;
13967;SDS011;39536;52.198;9.920;2023-04-25T10:42:53;4.67;;;2.10;;
13967;SDS011;39536;52.198;9.920;2023-04-25T10:45:21;2.07;;;1.70;;
13967;SDS011;39536;52.198;9.920;2023-04-25T10:47:48;5.67;;;2.83;;
13967;SDS011;39536;52.198;9.920;2023-04-25T10:50:15;5.40;;;1.90;;
13967;SDS011;39536;52.198;9.920;2023-04-25T10:52:42;2.23;;;1.40;;
13967;SDS011;39536;52.198;9.920;2023-04-25T10:55:09;3.93;;;1.70;;
13967;SDS011;39536;52.198;9.920;2023-04-25T10:57:36;6.23;;;2.00;;
13967;SDS011;39536;52.198;9.920;2023-04-25T11:00:05;8.47;;;2.77;;
13967;SDS011;39536;52.198;9.920;2023-04-25T11:02:38;4.27;;;2.90;;
13967;SDS011;39536;52.198;9.920;2023-04-25T11:05:08;4.43;;;2.27;;
13967;SDS011;39536;52.198;9.920;2023-04-25T11:07:37;9.57;;;2.80;;
13967;SDS011;39536;52.198;9.920;2023-04-25T11:10:05;4.97;;;2.13;;
13967;SDS011;39536;52.198;9.920;2023-04-25T11:12:32;5.07;;;2.00;;
13967;SDS011;39536;52.198;9.920;2023-04-25T11:15:00;4.77;;;2.03;;
13967;SDS011;39536;52.198;9.920;2023-04-25T11:17:30;4.20;;;2.03;;
13967;SDS011;39536;52.198;9.920;2023-04-25T11:19:59;7.33;;;2.37;;
13967;SDS011;39536;52.198;9.920;2023-04-25T11:22:26;2.27;;;1.87;;
13967;SDS011;39536;52.198;9.920;2023-04-25T11:24:53;3.03;;;1.93;;
13967;SDS011;39536;52.198;9.920;2023-04-25T11:27:20;8.40;;;2.47;;
13967;SDS011;39536;52.198;9.920;2023-04-25T11:29:47;9.40;;;2.70;;
13967;SDS011;39536;52.198;9.920;2023-04-25T11:32:14;4.60;;;2.67;;
13967;SDS011;39536;52.198;9.920;2023-04-25T11:34:42;3.87;;;1.90;;
13967;SDS011;39536;52.198;9.920;2023-04-25T11:37:11;10.23;;;2.97;;
13967;SDS011;39536;52.198;9.920;2023-04-25T11:39:38;5.17;;;2.30;;
13967;SDS011;39536;52.198;9.920;2023-04-25T11:42:09;8.67;;;1.87;;
13967;SDS011;39536;52.198;9.920;2023-04-25T11:44:35;4.00;;;1.77;;
13967;SDS011;39536;52.198;9.920;2023-04-25T11:47:04;3.67;;;2.43;;
13967;SDS011;39536;52.198;9.920;2023-04-25T11:49:30;4.47;;;2.90;;
13967;SDS011;39536;52.198;9.920;2023-04-25T11:51:57;3.67;;;2.20;;
13967;SDS011;39536;52.198;9.920;2023-04-25T11:54:25;6.80;;;2.10;;
13967;SDS011;39536;52.198;9.920;2023-04-25T11:56:51;2.53;;;1.63;;
13967;SDS011;39536;52.198;9.920;2023-04-25T11:59:17;4.73;;;2.50;;
13967;SDS011;39536;52.198;9.920;2023-04-25T12:01:50;3.73;;;1.83;;
13967;SDS011;39536;52.198;9.920;2023-04-25T12:04:17;4.50;;;2.20;;
13967;SDS011;39536;52.198;9.920;2023-04-25T12:06:45;3.47;;;1.73;;
13967;SDS011;39536;52.198;9.920;2023-04-25T12:09:13;2.67;;;1.57;;
13967;SDS011;39536;52.198;9.920;2023-04-25T12:11:44;5.33;;;2.40;;
13967;SDS011;39536;52.198;9.920;2023-04-25T12:14:19;6.17;;;1.80;;
13967;SDS011;39536;52.198;9.920;2023-04-25T12:16:48;4.30;;;1.77;;
13967;SDS011;39536;52.198;9.920;2023-04-25T12:19:16;3.40;;;2.03;;
13967;SDS011;39536;52.198;9.920;2023-04-25T12:21:43;6.20;;;2.10;;
13967;SDS011;39536;52.198;9.920;2023-04-25T12:24:11;8.70;;;2.07;;
13967;SDS011;39536;52.198;9.920;2023-04-25T12:26:47;5.50;;;2.10;;
13967;SDS011;39536;52.198;9.920;2023-04-25T12:29:20;6.97;;;2.30;;
13967;SDS011;39536;52.198;9.920;2023-04-25T12:31:48;4.50;;;2.20;;
13967;SDS011;39536;52.198;9.920;2023-04-25T12:34:16;6.00;;;2.40;;
13967;SDS011;39536;52.198;9.920;2023-04-25T12:36:43;3.57;;;1.80;;
13967;SDS011;39536;52.198;9.920;2023-04-25T12:39:14;6.30;;;2.80;;
13967;SDS011;39536;52.198;9.920;2023-04-25T12:41:40;7.33;;;2.47;;
13967;SDS011;39536;52.198;9.920;2023-04-25T12:44:08;5.07;;;4.20;;
13967;SDS011;39536;52.198;9.920;2023-04-25T12:46:35;5.93;;;3.87;;
13967;SDS011;39536;52.198;9.920;2023-04-25T12:49:01;12.33;;;3.87;;
13967;SDS011;39536;52.198;9.920;2023-04-25T12:51:29;3.60;;;2.60;;
13967;SDS011;39536;52.198;9.920;2023-04-25T12:53:57;2.40;;;2.20;;
13967;SDS011;39536;52.198;9.920;2023-04-25T12:56:24;2.93;;;1.30;;
13967;SDS011;39536;52.198;9.920;2023-04-25T12:58:51;2.23;;;1.00;;
13967;SDS011;39536;52.198;9.920;2023-04-25T13:01:19;1.13;;;0.83;;
13967;SDS011;39536;52.198;9.920;2023-04-25T13:03:46;1.77;;;1.23;;
13967;SDS011;39536;52.198;9.920;2023-04-25T13:06:13;3.13;;;1.20;;
13967;SDS011;39536;52.198;9.920;2023-04-25T13:08:39;3.00;;;2.00;;
13967;SDS011;39536;52.198;9.920;2023-04-25T13:11:06;4.67;;;1.20;;
13967;SDS011;39536;52.198;9.920;2023-04-25T13:13:33;2.60;;;1.17;;
13967;SDS011;39536;52.198;9.920;2023-04-25T13:16:00;2.40;;;1.33;;
13967;SDS011;39536;52.198;9.920;2023-04-25T13:18:28;3.30;;;1.60;;
13967;SDS011;39536;52.198;9.920;2023-04-25T13:20:54;4.87;;;1.93;;
13967;SDS011;39536;52.198;9.920;2023-04-25T13:23:21;4.17;;;1.63;;
13967;SDS011;39536;52.198;9.920;2023-04-25T13:25:48;7.43;;;1.87;;
13967;SDS011;39536;52.198;9.920;2023-04-25T13:28:15;2.83;;;1.50;;
13967;SDS011;39536;52.198;9.920;2023-04-25T13:30:41;2.07;;;1.20;;
13967;SDS011;39536;52.198;9.920;2023-04-25T13:33:08;1.87;;;1.47;;
13967;SDS011;39536;52.198;9.920;2023-04-25T13:35:37;2.80;;;1.40;;
13967;SDS011;39536;52.198;9.920;2023-04-25T13:38:04;3.07;;;1.87;;
13967;SDS011;39536;52.198;9.920;2023-04-25T13:40:31;2.70;;;1.70;;
13967;SDS011;39536;52.198;9.920;2023-04-25T13:42:58;2.47;;;1.40;;
13967;SDS011;39536;52.198;9.920;2023-04-25T13:45:25;2.43;;;0.97;;
13967;SDS011;39536;52.198;9.920;2023-04-25T13:47:51;1.50;;;1.00;;
13967;SDS011;39536;52.198;9.920;2023-04-25T13:50:18;1.83;;;1.27;;
13967;SDS011;39536;52.198;9.920;2023-04-25T13:52:46;1.27;;;1.10;;
13967;SDS011;39536;52.198;9.920;2023-04-25T13:55:13;2.00;;;1.67;;
13967;SDS011;39536;52.198;9.920;2023-04-25T13:57:40;3.17;;;1.60;;
13967;SDS011;39536;52.198;9.920;2023-04-25T14:00:07;2.73;;;1.60;;
13967;SDS011;39536;52.198;9.920;2023-04-25T14:02:35;2.60;;;1.57;;
13967;SDS011;39536;52.198;9.920;2023-04-25T14:05:01;3.63;;;2.27;;
13967;SDS011;39536;52.198;9.920;2023-04-25T14:07:29;3.23;;;1.87;;
13967;SDS011;39536;52.198;9.920;2023-04-25T14:09:57;3.00;;;1.30;;
13967;SDS011;39536;52.198;9.920;2023-04-25T14:12:23;4.73;;;1.83;;
13967;SDS011;39536;52.198;9.920;2023-04-25T14:14:51;3.83;;;1.33;;
13967;SDS011;39536;52.198;9.920;2023-04-25T14:17:17;5.50;;;2.13;;
13967;SDS011;39536;52.198;9.920;2023-04-25T14:19:44;1.47;;;1.27;;
13967;SDS011;39536;52.198;9.920;2023-04-25T14:22:12;2.20;;;1.40;;
13967;SDS011;39536;52.198;9.920;2023-04-25T14:24:39;3.20;;;2.07;;
13967;SDS011;39536;52.198;9.920;2023-04-25T14:27:07;2.93;;;1.57;;
13967;SDS011;39536;52.198;9.920;2023-04-25T14:29:33;4.50;;;2.03;;
13967;SDS011;39536;52.198;9.920;2023-04-25T14:32:00;3.20;;;1.67;;
13967;SDS011;39536;52.198;9.920;2023-04-25T14:34:27;4.17;;;2.10;;
13967;SDS011;39536;52.198;9.920;2023-04-25T14:36:54;2.60;;;1.60;;
13967;SDS011;39536;52.198;9.920;2023-04-25T14:39:20;2.70;;;1.87;;
13967;SDS011;39536;52.198;9.920;2023-04-25T14:41:47;1.67;;;1.50;;
13967;SDS011;39536;52.198;9.920;2023-04-25T14:44:14;1.50;;;1.40;;